Time,TemperatureF,DewpointF,PressureIn,WindDirection,WindDirectionDegrees,WindSpeedMPH,WindSpeedGustMPH,Humidity,HourlyPrecipIn,Conditions,Clouds,dailyrainin,SoftwareType,DateUTC
2013-02-26 00:01:00,11.6,3.7,30.10,West,275,4.0,5.0,70,0.00,,,0.00,Wunderground v.1.15,2013-02-26 07:01:00,
2013-02-26 00:06:00,11.4,4.1,30.10,West,275,3.0,5.0,72,0.00,,,0.00,Wunderground v.1.15,2013-02-26 07:06:00,
2013-02-26 00:11:00,11.9,5.2,30.10,West,275,1.0,3.0,74,0.00,,,0.00,Wunderground v.1.15,2013-02-26 07:11:00,
2013-02-26 00:16:00,12.5,5.8,30.10,West,275,0.0,3.0,74,0.00,,,0.00,Wunderground v.1.15,2013-02-26 07:16:00,
2013-02-26 00:21:00,13.1,6.4,30.09,West,275,0.0,1.0,74,0.00,,,0.00,Wunderground v.1.15,2013-02-26 07:21:00,
2013-02-26 00:26:00,13.4,6.7,30.08,West,275,0.0,1.0,74,0.00,,,0.00,Wunderground v.1.15,2013-02-26 07:26:00,
2013-02-26 00:31:00,13.5,6.5,30.08,West,275,0.0,0.0,73,0.00,,,0.00,Wunderground v.1.15,2013-02-26 07:31:00,
2013-02-26 00:36:00,13.7,6.6,30.08,West,275,1.0,2.0,73,0.00,,,0.00,Wunderground v.1.15,2013-02-26 07:36:00,
2013-02-26 00:41:00,14.5,6.8,30.08,West,275,1.0,1.0,71,0.00,,,0.00,Wunderground v.1.15,2013-02-26 07:41:00,
2013-02-26 00:46:00,15.1,7.1,30.08,West,275,2.0,3.0,70,0.00,,,0.00,Wunderground v.1.15,2013-02-26 07:46:00,
2013-02-26 00:51:00,15.8,7.1,30.08,West,275,2.0,3.0,68,0.00,,,0.00,Wunderground v.1.15,2013-02-26 07:51:00,
2013-02-26 00:56:00,16.5,7.1,30.08,West,275,1.0,3.0,66,0.00,,,0.00,Wunderground v.1.15,2013-02-26 07:56:00,
2013-02-26 01:01:00,17.0,7.3,30.07,West,275,0.0,2.0,65,0.00,,,0.00,Wunderground v.1.15,2013-02-26 08:01:00,
2013-02-26 01:06:00,17.3,7.2,30.07,West,275,0.0,2.0,64,0.00,,,0.00,Wunderground v.1.15,2013-02-26 08:06:00,
2013-02-26 01:11:00,17.2,7.1,30.07,West,275,0.0,0.0,64,0.00,,,0.00,Wunderground v.1.15,2013-02-26 08:11:00,
2013-02-26 01:16:00,16.4,6.7,30.07,West,275,2.0,3.0,65,0.00,,,0.00,Wunderground v.1.15,2013-02-26 08:16:00,
2013-02-26 01:21:00,14.9,5.6,30.07,West,275,1.0,2.0,66,0.00,,,0.00,Wunderground v.1.15,2013-02-26 08:21:00,
2013-02-26 01:26:00,14.4,5.4,30.07,West,275,0.0,2.0,67,0.00,,,0.00,Wunderground v.1.15,2013-02-26 08:26:00,
2013-02-26 01:31:00,14.4,5.4,30.07,West,275,0.0,0.0,67,0.00,,,0.00,Wunderground v.1.15,2013-02-26 08:31:00,
2013-02-26 01:36:00,14.6,5.6,30.07,West,275,2.0,4.0,67,0.00,,,0.00,Wunderground v.1.15,2013-02-26 08:36:00,
2013-02-26 01:41:00,14.1,5.1,30.06,WNW,290,3.0,4.0,67,0.00,,,0.00,Wunderground v.1.15,2013-02-26 08:41:00,
2013-02-26 01:46:00,13.1,4.5,30.06,WNW,290,2.0,4.0,68,0.00,,,0.00,Wunderground v.1.15,2013-02-26 08:46:00,
2013-02-26 01:51:00,12.3,4.1,30.06,WNW,290,0.0,2.0,69,0.00,,,0.00,Wunderground v.1.15,2013-02-26 08:51:00,
2013-02-26 01:56:00,11.6,3.4,30.06,WNW,290,0.0,2.0,69,0.00,,,0.00,Wunderground v.1.15,2013-02-26 08:56:00,
2013-02-26 02:01:00,10.7,2.5,30.06,WNW,290,2.0,2.0,69,0.00,,,0.00,Wunderground v.1.15,2013-02-26 09:01:00,
2013-02-26 02:06:00,10.2,2.4,30.06,WNW,290,1.0,3.0,70,0.00,,,0.00,Wunderground v.1.15,2013-02-26 09:06:00,
2013-02-26 02:11:00,9.9,2.7,30.06,WNW,290,3.0,4.0,72,0.00,,,0.00,Wunderground v.1.15,2013-02-26 09:11:00,
2013-02-26 02:16:00,9.9,2.7,30.05,WNW,291,1.0,5.0,72,0.00,,,0.00,Wunderground v.1.15,2013-02-26 09:16:00,
2013-02-26 02:21:00,9.9,3.0,30.05,WNW,291,3.0,3.0,73,0.00,,,0.00,Wunderground v.1.15,2013-02-26 09:21:00,
2013-02-26 02:26:00,9.7,2.8,30.05,WNW,291,4.0,5.0,73,0.00,,,0.00,Wunderground v.1.15,2013-02-26 09:26:00,
2013-02-26 02:31:00,9.7,3.1,30.05,WNW,291,2.0,3.0,74,0.00,,,0.00,Wunderground v.1.15,2013-02-26 09:31:00,
2013-02-26 02:36:00,9.2,2.3,30.04,WNW,291,1.0,3.0,73,0.00,,,0.00,Wunderground v.1.15,2013-02-26 09:36:00,
2013-02-26 02:41:00,7.0,-0.4,30.04,WNW,288,2.0,2.0,71,0.00,,,0.00,Wunderground v.1.15,2013-02-26 09:41:00,
2013-02-26 02:46:00,6.9,0.4,30.04,West,277,5.0,5.0,74,0.00,,,0.00,Wunderground v.1.15,2013-02-26 09:46:00,
2013-02-26 02:51:00,7.7,1.7,30.05,West,271,4.0,5.0,76,0.00,,,0.00,Wunderground v.1.15,2013-02-26 09:51:00,
2013-02-26 02:56:00,8.1,2.4,30.05,West,271,3.0,5.0,77,0.00,,,0.00,Wunderground v.1.15,2013-02-26 09:56:00,
2013-02-26 03:01:00,8.0,2.6,30.04,West,271,2.0,4.0,78,0.00,,,0.00,Wunderground v.1.15,2013-02-26 10:01:00,
2013-02-26 03:06:00,8.6,3.1,30.04,West,271,2.0,4.0,78,0.00,,,0.00,Wunderground v.1.15,2013-02-26 10:06:00,
2013-02-26 03:11:00,9.0,3.5,30.04,West,271,3.0,3.0,78,0.00,,,0.00,Wunderground v.1.15,2013-02-26 10:11:00,
2013-02-26 03:16:00,9.1,3.6,30.03,West,271,2.0,3.0,78,0.00,,,0.00,Wunderground v.1.15,2013-02-26 10:16:00,
2013-02-26 03:21:00,9.9,4.4,30.04,West,271,0.0,2.0,78,0.00,,,0.00,Wunderground v.1.15,2013-02-26 10:21:00,
2013-02-26 03:26:00,9.8,3.7,30.04,West,271,2.0,3.0,76,0.00,,,0.00,Wunderground v.1.15,2013-02-26 10:26:00,
2013-02-26 03:31:00,6.9,0.1,30.04,West,271,4.0,5.0,73,0.00,,,0.00,Wunderground v.1.15,2013-02-26 10:31:00,
2013-02-26 03:36:00,6.7,0.5,30.04,West,271,2.0,5.0,75,0.00,,,0.00,Wunderground v.1.15,2013-02-26 10:36:00,
2013-02-26 03:41:00,7.2,1.2,30.04,West,271,2.0,3.0,76,0.00,,,0.00,Wunderground v.1.15,2013-02-26 10:41:00,
2013-02-26 03:46:00,7.5,1.8,30.03,West,271,2.0,3.0,77,0.00,,,0.00,Wunderground v.1.15,2013-02-26 10:46:00,
2013-02-26 03:51:00,8.2,2.8,30.02,West,271,0.0,2.0,78,0.00,,,0.00,Wunderground v.1.15,2013-02-26 10:51:00,
2013-02-26 03:56:00,8.7,3.0,30.02,West,271,0.0,2.0,77,0.00,,,0.00,Wunderground v.1.15,2013-02-26 10:56:00,
2013-02-26 04:01:00,9.1,3.4,30.02,West,271,0.0,0.0,77,0.00,,,0.00,Wunderground v.1.15,2013-02-26 11:01:00,
2013-02-26 04:06:00,9.4,3.4,30.02,West,271,0.0,0.0,76,0.00,,,0.00,Wunderground v.1.15,2013-02-26 11:06:00,
2013-02-26 04:11:00,9.4,3.1,30.02,West,272,4.0,4.0,75,0.00,,,0.00,Wunderground v.1.15,2013-02-26 11:11:00,
2013-02-26 04:16:00,9.3,2.7,30.02,West,272,4.0,4.0,74,0.00,,,0.00,Wunderground v.1.15,2013-02-26 11:16:00,
2013-02-26 04:21:00,9.1,2.5,30.02,West,272,3.0,3.0,74,0.00,,,0.00,Wunderground v.1.15,2013-02-26 11:21:00,
2013-02-26 04:26:00,8.8,2.2,30.02,West,272,3.0,3.0,74,0.00,,,0.00,Wunderground v.1.15,2013-02-26 11:26:00,
2013-02-26 04:31:00,8.5,1.6,30.02,West,272,0.0,2.0,73,0.00,,,0.00,Wunderground v.1.15,2013-02-26 11:31:00,
2013-02-26 04:36:00,8.5,1.6,30.02,West,272,1.0,3.0,73,0.00,,,0.00,Wunderground v.1.15,2013-02-26 11:36:00,
2013-02-26 04:41:00,8.3,1.4,30.02,WNW,297,4.0,4.0,73,0.00,,,0.00,Wunderground v.1.15,2013-02-26 11:41:00,
2013-02-26 04:46:00,8.0,0.8,30.02,WNW,296,3.0,5.0,72,0.00,,,0.00,Wunderground v.1.15,2013-02-26 11:46:00,
2013-02-26 04:51:00,7.3,0.2,30.02,WNW,298,2.0,4.0,72,0.00,,,0.00,Wunderground v.1.15,2013-02-26 11:51:00,
2013-02-26 04:56:00,6.7,-0.4,30.02,WNW,298,2.0,4.0,72,0.00,,,0.00,Wunderground v.1.15,2013-02-26 11:56:00,
2013-02-26 05:01:00,6.3,-0.5,30.01,WNW,298,1.0,2.0,73,0.00,,,0.00,Wunderground v.1.15,2013-02-26 12:01:00,
2013-02-26 05:06:00,4.5,-2.8,30.01,SW,232,2.0,3.0,71,0.00,,,0.00,Wunderground v.1.15,2013-02-26 12:06:00,
2013-02-26 05:11:00,4.2,-2.3,30.01,SSW,208,5.0,5.0,74,0.00,,,0.00,Wunderground v.1.15,2013-02-26 12:11:00,
2013-02-26 05:16:00,2.9,-3.8,30.01,South,178,4.0,7.0,73,0.00,,,0.00,Wunderground v.1.15,2013-02-26 12:16:00,
2013-02-26 05:21:00,3.6,-2.6,30.01,SW,225,5.0,7.0,75,0.00,,,0.00,Wunderground v.1.15,2013-02-26 12:21:00,
2013-02-26 05:26:00,5.4,-0.5,30.01,WSW,246,3.0,7.0,76,0.00,,,0.00,Wunderground v.1.15,2013-02-26 12:26:00,
2013-02-26 05:31:00,5.7,-0.5,30.01,WSW,246,2.0,4.0,75,0.00,,,0.00,Wunderground v.1.15,2013-02-26 12:31:00,
2013-02-26 05:36:00,6.1,-0.1,30.00,WSW,246,4.0,4.0,75,0.00,,,0.00,Wunderground v.1.15,2013-02-26 12:36:00,
2013-02-26 05:41:00,6.6,0.1,30.00,West,259,3.0,3.0,74,0.00,,,0.00,Wunderground v.1.15,2013-02-26 12:41:00,
2013-02-26 05:46:00,5.4,-1.7,30.00,SW,232,2.0,5.0,72,0.00,,,0.00,Wunderground v.1.15,2013-02-26 12:46:00,
2013-02-26 05:51:00,5.1,-1.7,30.00,NW,311,0.0,3.0,73,0.00,,,0.00,Wunderground v.1.15,2013-02-26 12:51:00,
2013-02-26 05:56:00,5.0,-1.5,30.01,WNW,290,0.0,4.0,74,0.00,,,0.00,Wunderground v.1.15,2013-02-26 12:56:00,
2013-02-26 06:01:00,4.6,-2.2,30.01,WNW,290,0.0,1.0,73,0.00,,,0.00,Wunderground v.1.15,2013-02-26 13:01:00,
2013-02-26 06:06:00,4.5,-2.0,30.01,WNW,290,0.0,1.0,74,0.00,,,0.00,Wunderground v.1.15,2013-02-26 13:06:00,
2013-02-26 06:11:00,4.4,-1.8,30.00,WNW,290,0.0,0.0,75,0.00,,,0.00,Wunderground v.1.15,2013-02-26 13:11:00,
2013-02-26 06:16:00,4.8,-1.1,30.01,WNW,290,3.0,3.0,76,0.00,,,0.00,Wunderground v.1.15,2013-02-26 13:16:00,
2013-02-26 06:21:00,4.9,-1.0,30.01,WNW,290,2.0,3.0,76,0.00,,,0.00,Wunderground v.1.15,2013-02-26 13:21:00,
2013-02-26 06:26:00,4.3,-1.9,30.01,WNW,290,1.0,3.0,75,0.00,,,0.00,Wunderground v.1.15,2013-02-26 13:26:00,
2013-02-26 06:31:00,3.7,-2.5,30.00,WNW,290,0.0,2.0,75,0.00,,,0.00,Wunderground v.1.15,2013-02-26 13:31:00,
2013-02-26 06:36:00,3.4,-2.7,30.00,WNW,290,1.0,3.0,75,0.00,,,0.00,Wunderground v.1.15,2013-02-26 13:36:00,
2013-02-26 06:41:00,3.8,-2.1,30.00,WNW,290,1.0,3.0,76,0.00,,,0.00,Wunderground v.1.15,2013-02-26 13:41:00,
2013-02-26 06:46:00,4.1,-2.1,30.00,WNW,290,2.0,3.0,75,0.00,,,0.00,Wunderground v.1.15,2013-02-26 13:46:00,
2013-02-26 06:51:00,3.3,-3.1,30.00,NNW,348,1.0,2.0,74,0.00,,,0.00,Wunderground v.1.15,2013-02-26 13:51:00,
2013-02-26 06:56:00,3.2,-2.9,30.00,NNW,348,1.0,4.0,75,0.00,,,0.00,Wunderground v.1.15,2013-02-26 13:56:00,
2013-02-26 07:01:00,4.2,-1.4,30.00,NNW,338,1.0,3.0,77,0.00,,,0.00,Wunderground v.1.15,2013-02-26 14:01:00,
2013-02-26 07:06:00,5.5,0.1,30.00,NNW,338,3.0,5.0,78,0.00,,,0.00,Wunderground v.1.15,2013-02-26 14:06:00,
2013-02-26 07:11:00,7.1,1.7,30.00,NNW,344,5.0,5.0,78,0.00,,,0.00,Wunderground v.1.15,2013-02-26 14:11:00,
2013-02-26 07:16:00,7.6,1.6,29.99,NNW,342,3.0,5.0,76,0.00,,,0.00,Wunderground v.1.15,2013-02-26 14:16:00,
2013-02-26 07:21:00,7.8,1.5,29.99,NNW,340,4.0,7.0,75,0.00,,,0.00,Wunderground v.1.15,2013-02-26 14:21:00,
2013-02-26 07:26:00,7.5,0.7,29.99,North,355,2.0,7.0,73,0.00,,,0.00,Wunderground v.1.15,2013-02-26 14:26:00,
2013-02-26 07:31:00,7.3,0.5,29.99,NNW,328,4.0,6.0,73,0.00,,,0.00,Wunderground v.1.15,2013-02-26 14:31:00,
2013-02-26 07:36:00,7.5,0.9,29.99,NNW,338,3.0,6.0,74,0.00,,,0.00,Wunderground v.1.15,2013-02-26 14:36:00,
2013-02-26 07:41:00,8.3,2.0,29.98,North,349,7.0,10.0,75,0.00,,,0.00,Wunderground v.1.15,2013-02-26 14:41:00,
2013-02-26 07:46:00,9.8,3.2,29.99,NNW,336,7.0,10.0,74,0.00,,,0.00,Wunderground v.1.15,2013-02-26 14:46:00,
2013-02-26 07:51:00,10.6,3.6,29.99,WNW,300,7.0,8.0,73,0.00,,,0.00,Wunderground v.1.15,2013-02-26 14:51:00,
2013-02-26 07:56:00,11.5,4.2,29.99,NW,319,4.0,9.0,72,0.00,,,0.00,Wunderground v.1.15,2013-02-26 14:56:00,
2013-02-26 08:01:00,11.9,4.3,29.99,NW,313,5.0,5.0,71,0.00,,,0.00,Wunderground v.1.15,2013-02-26 15:01:00,
2013-02-26 08:06:00,12.0,4.1,29.99,NW,311,4.0,6.0,70,0.00,,,0.00,Wunderground v.1.15,2013-02-26 15:06:00,
2013-02-26 08:11:00,12.1,3.9,29.99,WNW,301,3.0,6.0,69,0.00,,,0.00,Wunderground v.1.15,2013-02-26 15:11:00,
2013-02-26 08:16:00,12.4,4.8,29.99,NW,322,4.0,7.0,71,0.00,,,0.00,Wunderground v.1.15,2013-02-26 15:16:00,
2013-02-26 08:21:00,12.8,5.5,29.99,NNW,340,1.0,5.0,72,0.00,,,0.00,Wunderground v.1.15,2013-02-26 15:21:00,
2013-02-26 08:26:00,13.0,5.4,29.99,NNW,340,3.0,5.0,71,0.00,,,0.00,Wunderground v.1.15,2013-02-26 15:26:00,
2013-02-26 08:31:00,13.5,6.1,29.99,North,350,1.0,6.0,72,0.00,,,0.00,Wunderground v.1.15,2013-02-26 15:31:00,
2013-02-26 08:36:00,14.1,7.0,29.99,North,350,1.0,6.0,73,0.00,,,0.00,Wunderground v.1.15,2013-02-26 15:36:00,
2013-02-26 08:41:00,14.9,7.8,29.99,North,350,1.0,3.0,73,0.00,,,0.00,Wunderground v.1.15,2013-02-26 15:41:00,
2013-02-26 08:46:00,15.5,8.4,29.99,North,10,2.0,4.0,73,0.00,,,0.00,Wunderground v.1.15,2013-02-26 15:46:00,
2013-02-26 08:51:00,16.5,9.0,29.98,NE,40,5.0,8.0,72,0.00,,,0.00,Wunderground v.1.15,2013-02-26 15:51:00,
2013-02-26 08:56:00,17.2,9.4,29.98,NE,40,3.0,8.0,71,0.00,,,0.00,Wunderground v.1.15,2013-02-26 15:56:00,
2013-02-26 09:01:00,17.7,9.6,29.98,NE,40,3.0,4.0,70,0.00,,,0.00,Wunderground v.1.15,2013-02-26 16:01:00,
2013-02-26 09:06:00,18.5,10.7,29.98,NE,39,4.0,8.0,71,0.00,,,0.00,Wunderground v.1.15,2013-02-26 16:06:00,
2013-02-26 09:11:00,19.4,10.9,29.98,North,9,5.0,7.0,69,0.00,,,0.00,Wunderground v.1.15,2013-02-26 16:11:00,
2013-02-26 09:16:00,20.0,11.1,29.98,NNE,32,4.0,7.0,68,0.00,,,0.00,Wunderground v.1.15,2013-02-26 16:16:00,
2013-02-26 09:21:00,20.3,11.1,29.98,NNE,32,2.0,4.0,67,0.00,,,0.00,Wunderground v.1.15,2013-02-26 16:21:00,
2013-02-26 09:26:00,20.7,11.5,29.98,NNE,31,1.0,5.0,67,0.00,,,0.00,Wunderground v.1.15,2013-02-26 16:26:00,
2013-02-26 09:31:00,21.2,11.9,29.98,NNE,31,2.0,3.0,67,0.00,,,0.00,Wunderground v.1.15,2013-02-26 16:31:00,
2013-02-26 09:36:00,21.9,12.3,29.98,NE,44,0.0,3.0,66,0.00,,,0.00,Wunderground v.1.15,2013-02-26 16:36:00,
2013-02-26 09:41:00,22.3,12.3,29.98,NE,47,0.0,2.0,65,0.00,,,0.00,Wunderground v.1.15,2013-02-26 16:41:00,
2013-02-26 09:46:00,22.5,12.1,29.97,NE,47,3.0,3.0,64,0.00,,,0.00,Wunderground v.1.15,2013-02-26 16:46:00,
2013-02-26 09:51:00,22.4,11.7,29.97,NE,48,1.0,2.0,63,0.00,,,0.00,Wunderground v.1.15,2013-02-26 16:51:00,
2013-02-26 09:56:00,21.9,11.2,29.97,NE,49,3.0,4.0,63,0.00,,,0.00,Wunderground v.1.15,2013-02-26 16:56:00,
2013-02-26 10:01:00,20.8,10.9,29.97,NE,49,0.0,2.0,65,0.00,,,0.00,Wunderground v.1.15,2013-02-26 17:01:00,
2013-02-26 10:06:00,20.2,10.6,29.97,NE,48,3.0,4.0,66,0.00,,,0.00,Wunderground v.1.15,2013-02-26 17:06:00,
2013-02-26 10:11:00,20.2,11.3,29.97,SE,126,2.0,4.0,68,0.00,,,0.00,Wunderground v.1.15,2013-02-26 17:11:00,
2013-02-26 10:16:00,20.4,11.5,29.96,SE,128,2.0,4.0,68,0.00,,,0.00,Wunderground v.1.15,2013-02-26 17:16:00,
2013-02-26 10:21:00,21.5,12.6,29.96,SE,128,2.0,3.0,68,0.00,,,0.00,Wunderground v.1.15,2013-02-26 17:21:00,
2013-02-26 10:26:00,22.7,13.4,29.96,SE,128,3.0,4.0,67,0.00,,,0.00,Wunderground v.1.15,2013-02-26 17:26:00,
2013-02-26 10:31:00,23.0,13.3,29.96,SE,128,3.0,4.0,66,0.00,,,0.00,Wunderground v.1.15,2013-02-26 17:31:00,
2013-02-26 10:36:00,23.4,13.4,29.96,SE,128,3.0,4.0,65,0.00,,,0.00,Wunderground v.1.15,2013-02-26 17:36:00,
2013-02-26 10:41:00,23.5,13.5,29.96,South,191,3.0,5.0,65,0.00,,,0.00,Wunderground v.1.15,2013-02-26 17:41:00,
2013-02-26 10:46:00,24.0,13.9,29.96,South,191,5.0,6.0,65,0.00,,,0.00,Wunderground v.1.15,2013-02-26 17:46:00,
2013-02-26 10:51:00,24.5,14.1,29.95,South,191,5.0,6.0,64,0.00,,,0.00,Wunderground v.1.15,2013-02-26 17:51:00,
2013-02-26 10:56:00,24.9,14.1,29.95,South,191,3.0,6.0,63,0.00,,,0.00,Wunderground v.1.15,2013-02-26 17:56:00,
2013-02-26 11:01:00,25.2,14.0,29.95,South,191,5.0,6.0,62,0.00,,,0.00,Wunderground v.1.15,2013-02-26 18:01:00,
2013-02-26 11:06:00,26.0,14.8,29.96,ESE,116,3.0,6.0,62,0.00,,,0.00,Wunderground v.1.15,2013-02-26 18:06:00,
2013-02-26 11:11:00,26.1,13.7,29.95,South,190,5.0,5.0,59,0.00,,,0.00,Wunderground v.1.15,2013-02-26 18:11:00,
2013-02-26 11:16:00,26.2,14.2,29.96,SSW,199,0.0,7.0,60,0.00,,,0.00,Wunderground v.1.15,2013-02-26 18:16:00,
2013-02-26 11:21:00,27.0,15.3,29.96,ENE,65,5.0,8.0,61,0.00,,,0.00,Wunderground v.1.15,2013-02-26 18:21:00,
2013-02-26 11:26:00,28.8,15.9,29.96,NE,39,8.0,12.0,58,0.00,,,0.00,Wunderground v.1.15,2013-02-26 18:26:00,
2013-02-26 11:31:00,29.2,15.0,29.95,NE,36,2.0,10.0,55,0.00,,,0.00,Wunderground v.1.15,2013-02-26 18:31:00,
2013-02-26 11:36:00,29.5,16.5,29.95,North,349,7.0,11.0,58,0.00,,,0.00,Wunderground v.1.15,2013-02-26 18:36:00,
2013-02-26 11:41:00,30.0,15.3,29.95,North,355,7.0,10.0,54,0.00,,,0.00,Wunderground v.1.15,2013-02-26 18:41:00,
2013-02-26 11:46:00,30.5,17.1,29.95,NW,319,3.0,11.0,57,0.00,,,0.00,Wunderground v.1.15,2013-02-26 18:46:00,
2013-02-26 11:51:00,30.5,15.8,29.95,WNW,283,6.0,8.0,54,0.00,,,0.00,Wunderground v.1.15,2013-02-26 18:51:00,
2013-02-26 11:56:00,30.1,18.3,29.95,NW,306,15.0,20.0,61,0.00,,,0.00,Wunderground v.1.15,2013-02-26 18:56:00,
2013-02-26 12:01:00,28.5,18.6,29.95,NW,310,14.0,18.0,66,0.00,,,0.00,Wunderground v.1.15,2013-02-26 19:01:00,
2013-02-26 12:06:00,26.9,17.7,29.95,NW,315,15.0,19.0,68,0.00,,,0.00,Wunderground v.1.15,2013-02-26 19:06:00,
2013-02-26 12:11:00,25.6,17.5,29.95,WNW,297,8.0,14.0,71,0.00,,,0.00,Wunderground v.1.15,2013-02-26 19:11:00,
2013-02-26 12:16:00,24.8,17.7,29.94,WNW,295,4.0,14.0,74,0.00,,,0.00,Wunderground v.1.15,2013-02-26 19:16:00,
2013-02-26 12:21:00,24.0,17.5,29.95,WSW,258,7.0,8.0,76,0.00,,,0.00,Wunderground v.1.15,2013-02-26 19:21:00,
2013-02-26 12:26:00,23.3,16.9,29.95,SW,236,7.0,8.0,76,0.00,,,0.00,Wunderground v.1.15,2013-02-26 19:26:00,
2013-02-26 12:31:00,23.0,16.6,29.95,WSW,237,7.0,7.0,76,0.00,,,0.00,Wunderground v.1.15,2013-02-26 19:31:00,
2013-02-26 12:36:00,23.1,17.0,29.95,WSW,249,7.0,8.0,77,0.00,,,0.00,Wunderground v.1.15,2013-02-26 19:36:00,
2013-02-26 12:41:00,24.2,18.0,29.95,WSW,254,8.0,10.0,77,0.00,,,0.00,Wunderground v.1.15,2013-02-26 19:41:00,
2013-02-26 12:46:00,24.9,18.1,29.94,WSW,242,8.0,11.0,75,0.00,,,0.00,Wunderground v.1.15,2013-02-26 19:46:00,
2013-02-26 12:51:00,25.5,17.7,29.94,West,275,12.0,14.0,72,0.00,,,0.00,Wunderground v.1.15,2013-02-26 19:51:00,
2013-02-26 12:56:00,26.1,17.6,29.94,SW,229,14.0,18.0,70,0.00,,,0.00,Wunderground v.1.15,2013-02-26 19:56:00,
2013-02-26 13:01:00,25.4,17.0,29.94,WSW,242,13.0,19.0,70,0.00,,,0.00,Wunderground v.1.15,2013-02-26 20:01:00,
2013-02-26 13:06:00,25.2,17.1,29.93,WSW,242,14.0,19.0,71,0.00,,,0.00,Wunderground v.1.15,2013-02-26 20:06:00,
2013-02-26 13:11:00,25.4,17.3,29.93,SW,214,11.0,13.0,71,0.00,,,0.00,Wunderground v.1.15,2013-02-26 20:11:00,
2013-02-26 13:16:00,25.9,18.1,29.93,SW,219,11.0,15.0,72,0.00,,,0.00,Wunderground v.1.15,2013-02-26 20:16:00,
2013-02-26 13:21:00,25.8,17.4,29.93,SSW,213,11.0,13.0,70,0.00,,,0.00,Wunderground v.1.15,2013-02-26 20:21:00,
2013-02-26 13:26:00,25.4,16.3,29.92,SW,230,9.0,16.0,68,0.00,,,0.00,Wunderground v.1.15,2013-02-26 20:26:00,
2013-02-26 13:31:00,25.6,15.5,29.93,WSW,246,12.0,13.0,65,0.00,,,0.00,Wunderground v.1.15,2013-02-26 20:31:00,
2013-02-26 13:36:00,26.2,15.7,29.93,SW,236,9.0,13.0,64,0.00,,,0.00,Wunderground v.1.15,2013-02-26 20:36:00,
2013-02-26 13:41:00,26.7,16.1,29.93,SW,223,8.0,10.0,64,0.00,,,0.00,Wunderground v.1.15,2013-02-26 20:41:00,
2013-02-26 13:46:00,27.2,16.3,29.93,WSW,240,8.0,10.0,63,0.00,,,0.00,Wunderground v.1.15,2013-02-26 20:46:00,
2013-02-26 13:51:00,28.1,14.8,29.93,WSW,252,8.0,9.0,57,0.00,,,0.00,Wunderground v.1.15,2013-02-26 20:51:00,
2013-02-26 13:56:00,28.1,14.4,29.94,WSW,255,12.0,14.0,56,0.00,,,0.00,Wunderground v.1.15,2013-02-26 20:56:00,
2013-02-26 14:01:00,28.5,13.5,29.94,West,261,13.0,14.0,53,0.00,,,0.00,Wunderground v.1.15,2013-02-26 21:01:00,
2013-02-26 14:06:00,28.6,13.6,29.94,West,269,10.0,16.0,53,0.00,,,0.00,Wunderground v.1.15,2013-02-26 21:06:00,
2013-02-26 14:11:00,28.7,11.0,29.94,West,270,11.0,13.0,47,0.00,,,0.00,Wunderground v.1.15,2013-02-26 21:11:00,
2013-02-26 14:16:00,28.8,11.1,29.94,WNW,283,11.0,13.0,47,0.00,,,0.00,Wunderground v.1.15,2013-02-26 21:16:00,
2013-02-26 14:21:00,29.1,11.4,29.94,WNW,298,9.0,11.0,47,0.00,,,0.00,Wunderground v.1.15,2013-02-26 21:21:00,
2013-02-26 14:26:00,29.9,11.6,29.94,WNW,285,10.0,13.0,46,0.00,,,0.00,Wunderground v.1.15,2013-02-26 21:26:00,
2013-02-26 14:31:00,31.3,11.9,29.95,WNW,302,11.0,13.0,44,0.00,,,0.00,Wunderground v.1.15,2013-02-26 21:31:00,
2013-02-26 14:36:00,32.6,12.0,29.94,WNW,298,8.0,13.0,42,0.00,,,0.00,Wunderground v.1.15,2013-02-26 21:36:00,
2013-02-26 14:41:00,32.8,11.6,29.94,WNW,288,10.0,11.0,41,0.00,,,0.00,Wunderground v.1.15,2013-02-26 21:41:00,
2013-02-26 14:46:00,32.5,10.3,29.95,NW,315,17.0,18.0,39,0.00,,,0.00,Wunderground v.1.15,2013-02-26 21:46:00,
2013-02-26 14:51:00,32.5,10.8,29.95,NNW,341,16.0,25.0,40,0.00,,,0.00,Wunderground v.1.15,2013-02-26 21:51:00,
2013-02-26 14:56:00,32.1,11.6,29.95,NNW,335,21.0,25.0,42,0.00,,,0.00,Wunderground v.1.15,2013-02-26 21:56:00,
2013-02-26 15:01:00,31.9,9.7,29.96,NNW,327,11.0,22.0,39,0.00,,,0.00,Wunderground v.1.15,2013-02-26 22:01:00,
2013-02-26 15:06:00,31.9,9.7,29.96,NW,320,20.0,26.0,39,0.00,,,0.00,Wunderground v.1.15,2013-02-26 22:06:00,
2013-02-26 15:12:00,30.6,9.1,29.96,NW,317,22.0,26.0,40,0.00,,,0.00,Wunderground v.1.15,2013-02-26 22:12:00,
2013-02-26 15:16:00,29.5,9.7,29.96,NW,311,23.0,26.0,43,0.00,,,0.00,Wunderground v.1.15,2013-02-26 22:16:00,
2013-02-26 15:22:00,30.3,10.4,29.96,NNW,333,14.0,23.0,43,0.00,,,0.00,Wunderground v.1.15,2013-02-26 22:22:00,
2013-02-26 15:27:00,30.2,10.4,29.97,NW,319,17.0,26.0,43,0.00,,,0.00,Wunderground v.1.15,2013-02-26 22:27:00,
2013-02-26 15:32:00,29.9,10.6,29.97,NW,325,18.0,25.0,44,0.00,,,0.00,Wunderground v.1.15,2013-02-26 22:32:00,
2013-02-26 15:37:00,29.7,10.9,29.97,NW,322,19.0,26.0,45,0.00,,,0.00,Wunderground v.1.15,2013-02-26 22:37:00,
2013-02-26 15:42:00,29.6,11.3,29.98,NNW,334,23.0,27.0,46,0.00,,,0.00,Wunderground v.1.15,2013-02-26 22:42:00,
2013-02-26 15:47:00,29.0,10.3,29.98,NW,316,21.0,27.0,45,0.00,,,0.00,Wunderground v.1.15,2013-02-26 22:47:00,
2013-02-26 15:52:00,29.0,9.8,29.99,NNW,330,24.0,28.0,44,0.00,,,0.00,Wunderground v.1.15,2013-02-26 22:52:00,
2013-02-26 15:57:00,29.2,10.0,29.99,NW,314,17.0,28.0,44,0.00,,,0.00,Wunderground v.1.15,2013-02-26 22:57:00,
2013-02-26 16:02:00,29.2,9.4,29.99,NW,306,19.0,24.0,43,0.00,,,0.00,Wunderground v.1.15,2013-02-26 23:02:00,
2013-02-26 16:07:00,28.4,9.7,29.99,NNW,327,19.0,24.0,45,0.00,,,0.00,Wunderground v.1.15,2013-02-26 23:07:00,
2013-02-26 16:12:00,27.5,8.9,30.00,NW,311,14.0,21.0,45,0.00,,,0.00,Wunderground v.1.15,2013-02-26 23:12:00,
2013-02-26 16:17:00,27.4,9.3,30.00,NNW,331,16.0,21.0,46,0.00,,,0.00,Wunderground v.1.15,2013-02-26 23:17:00,
2013-02-26 16:22:00,27.2,10.5,30.01,NW,319,10.0,16.0,49,0.00,,,0.00,Wunderground v.1.15,2013-02-26 23:22:00,
2013-02-26 16:27:00,27.1,9.0,30.01,NNW,332,25.0,25.0,46,0.00,,,0.00,Wunderground v.1.15,2013-02-26 23:27:00,
2013-02-26 16:32:00,26.8,9.2,30.01,North,360,18.0,25.0,47,0.00,,,0.00,Wunderground v.1.15,2013-02-26 23:32:00,
2013-02-26 16:37:00,26.6,9.5,30.02,NNW,347,13.0,28.0,48,0.00,,,0.00,Wunderground v.1.15,2013-02-26 23:37:00,
2013-02-26 16:42:00,26.2,8.2,30.02,NNW,336,28.0,28.0,46,0.00,,,0.00,Wunderground v.1.15,2013-02-26 23:42:00,
2013-02-26 16:47:00,25.8,9.2,30.03,NNW,338,21.0,28.0,49,0.00,,,0.00,Wunderground v.1.15,2013-02-26 23:47:00,
2013-02-26 16:52:00,25.6,9.1,30.03,NNW,331,15.0,20.0,49,0.00,,,0.00,Wunderground v.1.15,2013-02-26 23:52:00,
2013-02-26 16:57:00,25.5,9.0,30.03,NNW,340,14.0,24.0,49,0.00,,,0.00,Wunderground v.1.15,2013-02-26 23:57:00,
2013-02-26 17:02:00,25.4,8.9,30.04,NNW,335,12.0,17.0,49,0.00,,,0.00,Wunderground v.1.15,2013-02-27 00:02:00,
2013-02-26 17:07:00,25.3,9.2,30.04,North,11,17.0,17.0,50,0.00,,,0.00,Wunderground v.1.15,2013-02-27 00:07:00,
2013-02-26 17:12:00,25.2,8.7,30.04,NNW,336,15.0,16.0,49,0.00,,,0.00,Wunderground v.1.15,2013-02-27 00:12:00,
2013-02-26 17:17:00,25.1,8.6,30.04,NW,316,14.0,19.0,49,0.00,,,0.00,Wunderground v.1.15,2013-02-27 00:17:00,
2013-02-26 17:22:00,25.1,8.1,30.05,NW,311,13.0,19.0,48,0.00,,,0.00,Wunderground v.1.15,2013-02-27 00:22:00,
2013-02-26 17:27:00,25.1,8.1,30.05,NW,306,11.0,19.0,48,0.00,,,0.00,Wunderground v.1.15,2013-02-27 00:27:00,
2013-02-26 17:32:00,25.0,7.6,30.05,NW,319,23.0,23.0,47,0.00,,,0.00,Wunderground v.1.15,2013-02-27 00:32:00,
2013-02-26 17:37:00,25.1,7.2,30.06,NW,313,14.0,23.0,46,0.00,,,0.00,Wunderground v.1.15,2013-02-27 00:37:00,
2013-02-26 17:42:00,25.0,7.6,30.07,NW,314,14.0,16.0,47,0.00,,,0.00,Wunderground v.1.15,2013-02-27 00:42:00,
2013-02-26 17:47:00,24.8,7.9,30.07,NW,308,10.0,16.0,48,0.00,,,0.00,Wunderground v.1.15,2013-02-27 00:47:00,
2013-02-26 17:52:00,24.6,7.7,30.08,NW,309,16.0,17.0,48,0.00,,,0.00,Wunderground v.1.15,2013-02-27 00:52:00,
2013-02-26 17:57:00,24.5,8.0,30.08,NW,310,10.0,17.0,49,0.00,,,0.00,Wunderground v.1.15,2013-02-27 00:57:00,
2013-02-26 18:02:00,24.3,8.3,30.08,NW,322,10.0,15.0,50,0.00,,,0.00,Wunderground v.1.15,2013-02-27 01:02:00,
2013-02-26 18:07:00,24.2,7.8,30.08,NW,317,13.0,16.0,49,0.00,,,0.00,Wunderground v.1.15,2013-02-27 01:07:00,
2013-02-26 18:12:00,24.2,7.8,30.08,NW,319,13.0,14.0,49,0.00,,,0.00,Wunderground v.1.15,2013-02-27 01:12:00,
2013-02-26 18:17:00,24.1,7.7,30.09,NW,325,8.0,16.0,49,0.00,,,0.00,Wunderground v.1.15,2013-02-27 01:17:00,
2013-02-26 18:22:00,23.9,7.9,30.09,North,355,11.0,14.0,50,0.00,,,0.00,Wunderground v.1.15,2013-02-27 01:22:00,
2013-02-26 18:27:00,23.8,7.8,30.10,NW,324,11.0,16.0,50,0.00,,,0.00,Wunderground v.1.15,2013-02-27 01:27:00,
2013-02-26 18:32:00,23.7,7.7,30.10,NNW,331,8.0,16.0,50,0.00,,,0.00,Wunderground v.1.15,2013-02-27 01:32:00,
2013-02-26 18:37:00,23.7,7.7,30.11,NNW,327,10.0,16.0,50,0.00,,,0.00,Wunderground v.1.15,2013-02-27 01:37:00,
2013-02-26 18:42:00,23.7,7.3,30.11,NNW,327,13.0,18.0,49,0.00,,,0.00,Wunderground v.1.15,2013-02-27 01:42:00,
2013-02-26 18:47:00,23.6,6.8,30.11,NW,316,16.0,18.0,48,0.00,,,0.00,Wunderground v.1.15,2013-02-27 01:47:00,
2013-02-26 18:52:00,23.8,6.0,30.12,NNW,333,15.0,19.0,46,0.00,,,0.00,Wunderground v.1.15,2013-02-27 01:52:00,
2013-02-26 18:57:00,23.6,7.2,30.13,NNW,336,11.0,19.0,49,0.00,,,0.00,Wunderground v.1.15,2013-02-27 01:57:00,
2013-02-26 19:02:00,23.5,6.2,30.14,North,355,12.0,19.0,47,0.00,,,0.00,Wunderground v.1.15,2013-02-27 02:02:00,
2013-02-26 19:07:00,23.3,7.4,30.14,North,355,14.0,19.0,50,0.00,,,0.00,Wunderground v.1.15,2013-02-27 02:07:00,
2013-02-26 19:12:00,23.1,6.3,30.14,North,349,11.0,19.0,48,0.00,,,0.00,Wunderground v.1.15,2013-02-27 02:12:00,
2013-02-26 19:17:00,23.0,7.1,30.14,NNW,344,14.0,19.0,50,0.00,,,0.00,Wunderground v.1.15,2013-02-27 02:17:00,
2013-02-26 19:22:00,22.8,7.4,30.14,North,351,11.0,14.0,51,0.00,,,0.00,Wunderground v.1.15,2013-02-27 02:22:00,
2013-02-26 19:27:00,22.5,7.5,30.15,NNW,333,15.0,17.0,52,0.00,,,0.00,Wunderground v.1.15,2013-02-27 02:27:00,
2013-02-26 19:33:00,22.6,7.6,30.16,NNW,344,14.0,17.0,52,0.00,,,0.00,Wunderground v.1.15,2013-02-27 02:33:00,
2013-02-26 19:38:00,22.5,7.5,30.16,NNW,338,13.0,17.0,52,0.00,,,0.00,Wunderground v.1.15,2013-02-27 02:38:00,
2013-02-26 19:43:00,22.2,7.6,30.16,NNW,337,10.0,13.0,53,0.00,,,0.00,Wunderground v.1.15,2013-02-27 02:43:00,
2013-02-26 19:48:00,22.1,7.6,30.16,NNW,332,11.0,15.0,53,0.00,,,0.00,Wunderground v.1.15,2013-02-27 02:48:00,
2013-02-26 19:53:00,21.8,7.3,30.17,NNW,346,11.0,15.0,53,0.00,,,0.00,Wunderground v.1.15,2013-02-27 02:53:00,
2013-02-26 19:58:00,21.7,7.6,30.17,NNW,340,9.0,15.0,54,0.00,,,0.00,Wunderground v.1.15,2013-02-27 02:58:00,
2013-02-26 20:03:00,21.4,8.1,30.18,NNW,337,12.0,12.0,56,0.00,,,0.00,Wunderground v.1.15,2013-02-27 03:03:00,
2013-02-26 20:08:00,21.4,8.1,30.18,NNW,338,10.0,14.0,56,0.00,,,0.00,Wunderground v.1.15,2013-02-27 03:08:00,
2013-02-26 20:13:00,21.3,8.0,30.18,NNW,339,12.0,13.0,56,0.00,,,0.00,Wunderground v.1.15,2013-02-27 03:13:00,
2013-02-26 20:18:00,21.0,7.7,30.19,NNW,330,11.0,14.0,56,0.00,,,0.00,Wunderground v.1.15,2013-02-27 03:18:00,
2013-02-26 20:23:00,20.7,7.5,30.19,NNW,336,10.0,12.0,56,0.00,,,0.00,Wunderground v.1.15,2013-02-27 03:23:00,
2013-02-26 20:28:00,20.8,7.2,30.20,NNW,331,14.0,18.0,55,0.00,,,0.00,Wunderground v.1.15,2013-02-27 03:28:00,
2013-02-26 20:33:00,20.7,7.1,30.20,NNW,341,13.0,18.0,55,0.00,,,0.00,Wunderground v.1.15,2013-02-27 03:33:00,
2013-02-26 20:38:00,20.3,7.1,30.20,NNW,340,9.0,18.0,56,0.00,,,0.00,Wunderground v.1.15,2013-02-27 03:38:00,
2013-02-26 20:43:00,19.8,7.0,30.21,NNW,334,13.0,15.0,57,0.00,,,0.00,Wunderground v.1.15,2013-02-27 03:43:00,
2013-02-26 20:47:00,19.7,6.9,30.21,NNW,340,13.0,15.0,57,0.00,,,0.00,Wunderground v.1.15,2013-02-27 03:47:00,
2013-02-26 20:53:00,19.7,6.9,30.22,NW,322,10.0,13.0,57,0.00,,,0.00,Wunderground v.1.15,2013-02-27 03:53:00,
2013-02-26 20:58:00,19.7,6.5,30.22,NNW,328,11.0,15.0,56,0.00,,,0.00,Wunderground v.1.15,2013-02-27 03:58:00,
2013-02-26 21:02:00,19.7,6.5,30.22,NNW,329,14.0,14.0,56,0.00,,,0.00,Wunderground v.1.15,2013-02-27 04:02:00,
2013-02-26 21:07:00,19.7,6.5,30.23,NW,315,15.0,18.0,56,0.00,,,0.00,Wunderground v.1.15,2013-02-27 04:07:00,
2013-02-26 21:13:00,19.9,6.3,30.23,NW,321,13.0,19.0,55,0.00,,,0.00,Wunderground v.1.15,2013-02-27 04:13:00,
2013-02-26 21:18:00,19.8,6.2,30.23,NNW,329,15.0,19.0,55,0.00,,,0.00,Wunderground v.1.15,2013-02-27 04:18:00,
2013-02-26 21:23:00,19.7,5.7,30.23,NNW,334,11.0,15.0,54,0.00,,,0.00,Wunderground v.1.15,2013-02-27 04:23:00,
2013-02-26 21:28:00,19.6,5.6,30.23,NW,321,12.0,15.0,54,0.00,,,0.00,Wunderground v.1.15,2013-02-27 04:28:00,
2013-02-26 21:33:00,19.7,5.3,30.24,NW,325,14.0,15.0,53,0.00,,,0.00,Wunderground v.1.15,2013-02-27 04:33:00,
2013-02-26 21:38:00,19.7,5.7,30.24,NW,321,11.0,15.0,54,0.00,,,0.00,Wunderground v.1.15,2013-02-27 04:38:00,
2013-02-26 21:43:00,19.4,5.8,30.24,NW,314,14.0,14.0,55,0.00,,,0.00,Wunderground v.1.15,2013-02-27 04:43:00,
2013-02-26 21:48:00,19.4,5.8,30.25,NNW,327,12.0,15.0,55,0.00,,,0.00,Wunderground v.1.15,2013-02-27 04:48:00,
2013-02-26 21:53:00,19.3,5.7,30.25,NNW,339,11.0,15.0,55,0.00,,,0.00,Wunderground v.1.15,2013-02-27 04:53:00,
2013-02-26 21:58:00,19.0,5.5,30.25,NNW,330,13.0,16.0,55,0.00,,,0.00,Wunderground v.1.15,2013-02-27 04:58:00,
2013-02-26 22:00:00,19.0,5.5,30.25,NNW,331,11.0,12.0,55,0.00,,,0.00,Wunderground v.1.15,2013-02-27 05:00:00,
2013-02-26 22:05:00,18.8,5.3,30.25,NW,321,12.0,16.0,55,0.00,,,0.00,Wunderground v.1.15,2013-02-27 05:05:00,
2013-02-26 22:10:00,18.9,5.4,30.25,NNW,331,13.0,14.0,55,0.00,,,0.00,Wunderground v.1.15,2013-02-27 05:10:00,
2013-02-26 22:15:00,18.8,5.3,30.25,NNW,327,15.0,16.0,55,0.00,,,0.00,Wunderground v.1.15,2013-02-27 05:15:00,
2013-02-26 22:20:00,18.7,4.8,30.25,NW,326,13.0,14.0,54,0.00,,,0.00,Wunderground v.1.15,2013-02-27 05:20:00,
2013-02-26 22:25:00,18.7,4.8,30.25,NNW,327,12.0,17.0,54,0.00,,,0.00,Wunderground v.1.15,2013-02-27 05:25:00,
2013-02-26 22:30:00,18.1,5.0,30.25,NNW,328,8.0,11.0,56,0.00,,,0.00,Wunderground v.1.15,2013-02-27 05:30:00,
2013-02-26 22:35:00,17.7,5.0,30.25,NNW,343,9.0,11.0,57,0.00,,,0.00,Wunderground v.1.15,2013-02-27 05:35:00,
2013-02-26 22:40:00,17.3,5.0,30.26,NNW,334,7.0,9.0,58,0.00,,,0.00,Wunderground v.1.15,2013-02-27 05:40:00,
2013-02-26 22:45:00,16.9,4.7,30.26,NNW,333,7.0,11.0,58,0.00,,,0.00,Wunderground v.1.15,2013-02-27 05:45:00,
2013-02-26 22:50:00,16.9,4.7,30.26,NNW,329,9.0,11.0,58,0.00,,,0.00,Wunderground v.1.15,2013-02-27 05:50:00,
2013-02-26 22:55:00,16.8,4.9,30.26,NNW,342,9.0,11.0,59,0.00,,,0.00,Wunderground v.1.15,2013-02-27 05:55:00,
2013-02-26 23:00:00,16.7,4.8,30.26,NNW,337,10.0,11.0,59,0.00,,,0.00,Wunderground v.1.15,2013-02-27 06:00:00,
2013-02-26 23:05:00,16.5,5.0,30.26,NNW,344,9.0,12.0,60,0.00,,,0.00,Wunderground v.1.15,2013-02-27 06:05:00,
2013-02-26 23:10:00,16.5,5.0,30.26,NW,321,5.0,9.0,60,0.00,,,0.00,Wunderground v.1.15,2013-02-27 06:10:00,
2013-02-26 23:15:00,16.2,5.1,30.26,NNW,327,5.0,9.0,61,0.00,,,0.00,Wunderground v.1.15,2013-02-27 06:15:00,
2013-02-26 23:20:00,16.1,5.0,30.27,NW,323,7.0,8.0,61,0.00,,,0.00,Wunderground v.1.15,2013-02-27 06:20:00,
2013-02-26 23:25:00,16.1,5.0,30.27,NW,315,7.0,9.0,61,0.00,,,0.00,Wunderground v.1.15,2013-02-27 06:25:00,
2013-02-26 23:30:00,15.9,4.8,30.27,NW,313,6.0,8.0,61,0.00,,,0.00,Wunderground v.1.15,2013-02-27 06:30:00,
2013-02-26 23:35:00,15.6,4.5,30.27,NW,311,8.0,9.0,61,0.00,,,0.00,Wunderground v.1.15,2013-02-27 06:35:00,
2013-02-26 23:40:00,15.4,4.7,30.27,NW,313,7.0,8.0,62,0.00,,,0.00,Wunderground v.1.15,2013-02-27 06:40:00,
2013-02-26 23:45:00,15.4,4.7,30.27,NW,313,8.0,9.0,62,0.00,,,0.00,Wunderground v.1.15,2013-02-27 06:45:00,
2013-02-26 23:50:00,15.8,4.7,30.27,NW,309,7.0,8.0,61,0.00,,,0.00,Wunderground v.1.15,2013-02-27 06:50:00,
2013-02-26 23:55:00,16.1,5.0,30.28,NW,310,9.0,11.0,61,0.00,,,0.00,Wunderground v.1.15,2013-02-27 06:55:00,